TAF EHAK
METAR EHAK
EHAK 280855Z AUTO 01018KT 330V060 9999 FEW032/// SCT043/// 06/M02 Q0999=
EHAK 280825Z AUTO 01020KT 320V050 9999 FEW031/// 05/M03 Q0999=
EHAK 280755Z AUTO 01019KT 330V060 9999 FEW031/// 05/M04 Q0999=
EHAK 280725Z AUTO 01018KT 330V060 9999 FEW034/// 05/M03 Q0999=
EHAK 280655Z AUTO 01018KT 340V070 9999 FEW033/// SCT042/// 05/M03 Q0999=
WC EHAK
WS EHAK
WV EHAK